KAOH/AOH METAR and TAF weather

Enter ICAO airport designator
Station Type Date Time Source
KAOH METAR 2024/07/24 11:53 UTC NOAA

KAOH 241153Z AUTO 22006KT 8SM CLR 21/19 A3010 RMK AO2 SLP184 T02110189 10222 20200 51008


Station Type Date Time Source
KAOH Decoded METAR 2024/07/24 11:53 UTC NOAA

LIMA ALLEN COUNTY AIRPORT, OH, United States (KAOH) 40-42N 84-01W 296M
Jul 24, 2024 - 07:53 AM EDT / 2024.07.24 1153 UTC
Wind: from the SW (220 degrees) at 7 MPH (6 KT):0
Visibility: 8 mile(s):0
Sky conditions: clear
Temperature: 70.0 F (21.1 C)
Dew Point: 66.0 F (18.9 C)
Relative Humidity: 87%
Pressure (altimeter): 30.1 in. Hg (1019 hPa)
Pressure tendency: 0.02 inches (0.8 hPa) higher than three hours ago
ob: KAOH 241153Z AUTO 22006KT 8SM CLR 21/19 A3010 RMK AO2 SLP184 T02110189 10222 20200 51008
cycle: 12

Station Type Date Time Source
KAOH TAF UTC NOAA

Error!

Example: see airport list